Terminal Aerodrome Forecast
Issued by NWS

Home | Current Version | Previous Version | Text Only | Print | Product List | Glossary On
Versions: 1 2 3 4 5 6 7 8 9 10 11 12 13 14 15 16 17 18 19 20
000
FTUS43 KMQT 261100 CCA
TAFSAW
TAF COR
KSAW 261134Z 2612/2712 VRB03KT 3SM BR OVC005
     FM261700 36003KT P6SM -SHSN OVC010
     FM270100 36006KT P6SM OVC008
     FM270700 36007KT 1SM -SN OVC005
      AMD LTD TO CLD VIS AND WIND 2703/2711=

USA.gov is the U.S. government's official web portal to all federal, state and local government web resources and services.